Prudhoe Bay, AK

1:05 AM AKDT on September 27, 2016 (GMT -0800)
Deadhorse | | Change Station

Elev 59 ft 70.19 °N, 148.47 °W | Updated 12 minutes ago

Overcast
Overcast
30 °F
Feels Like 22 °F
N
9
Wind Variable Wind from WSW

Today
High -- | Low -- °F
--% Chance of Precip.
Yesterday
High -- | Low -- °F
Precip. -- in
Pressure 30.01 in
Visibility 10.0 miles
Clouds Overcast 3600 ft
Windchill 22 °F
Dew Point 23 °F
Humidity 75%
Rainfall 0.00 in
Snow Depth Not available.
7:56 AM 7:30 PM
Waning Crescent, 13% visible
METAR PASC 270853Z 24008KT 10SM OVC036 M01/M05 A3000 RMK AO2 SLP160 T10111050 400221050 51012
Pressure 30.01 in
Visibility 10.0 miles
Clouds Overcast 3600 ft
Windchill 22 °F
Dew Point 23 °F
Humidity 75%
Rainfall 0.00 in
Snow Depth Not available.
7:56 AM 7:30 PM
Waning Crescent, 13% visible
METAR PASC 270853Z 24008KT 10SM OVC036 M01/M05 A3000 RMK AO2 SLP160 T10111050 400221050 51012

10-Day Weather Forecast

Almanac

Astronomy

Sep. 27, 2016 Rise Set
Actual Time
Civil Twilight
Nautical Twilight
Astronomical Twilight
Moon
Length of Visible Light
Length of Day
Tomorrow will be .
, % of the Moon is Illuminated

Today's Extremes

State Highs State Lows

Community

WunderPhotos

Upload Photos

1,942,040 photos uploaded!

WunderBlog® & News

Nearby

Air Quality

  Air Quality AQ Index Pollutant
Not available.

Snow Depth

Station Depth Elevation

Earthquake Activity

City Distance Mag. Time & Date
Minimum magnitude displayed is 2.5.

Coastal Water Temperatures

Place Temperature

Stations

Nearby Weather Stations

Station Location Temp. Windchill Dew Point Humidity Wind Precip. Elev Updated Type
                   

Watches & Warnings

There are currently no watches in effect.